Time;durP1;ratioP1;P1;durP2;ratioP2;P2;SDS_P1;SDS_P2;PMS_P1;PMS_P2;Temp;Humidity;BMP_temperature;BMP_pressure;BME280_temperature;BME280_humidity;BME280_pressure;Samples;Min_cycle;Max_cycle;Signal;HPM_P1;HPM_P2
2023/03/01 00:01:05;;;;;;;;;73.25;52.50;;;;;-3.91;90.76;99698.19;4785831;29;103022;-69
2023/03/01 00:03:33;;;;;;;;;72.50;55.50;;;;;-3.91;91.04;99692.88;4787553;29;102407;-69
2023/03/01 00:06:01;;;;;;;;;80.00;58.00;;;;;-3.96;91.06;99694.94;4784010;29;104007;-69
2023/03/01 00:08:28;;;;;;;;;62.50;51.00;;;;;-3.93;91.00;99689.50;4785990;29;102351;-69
2023/03/01 00:11:09;;;;;;;;;67.25;46.00;;;;;-3.93;90.19;99691.28;4785038;29;103677;-69
2023/03/01 00:13:37;;;;;;;;;58.75;46.25;;;;;-3.93;90.42;99689.50;4786122;29;102405;-68
2023/03/01 00:16:05;;;;;;;;;61.00;45.00;;;;;-3.94;90.49;99687.78;4791146;29;104049;-69
2023/03/01 00:18:32;;;;;;;;;47.25;37.50;;;;;-3.93;89.80;99692.13;4803515;29;102350;-69
2023/03/01 00:21:00;;;;;;;;;63.50;50.75;;;;;-3.94;90.95;99705.41;4803814;29;102470;-69
2023/03/01 00:23:27;;;;;;;;;47.75;35.75;;;;;-3.94;90.28;99692.22;4803816;29;101998;-69
2023/03/01 00:25:54;;;;;;;;;45.50;32.50;;;;;-3.89;90.08;99690.19;4789317;29;104214;-69
2023/03/01 00:28:21;;;;;;;;;36.25;31.25;;;;;-4.01;89.93;99661.81;4784902;29;102429;-69
2023/03/01 00:30:48;;;;;;;;;31.00;27.00;;;;;-3.88;88.93;99683.97;4800041;29;102443;-69
2023/03/01 00:33:15;;;;;;;;;26.33;19.00;;;;;-3.87;89.68;99681.22;4802983;29;102464;-68
2023/03/01 00:35:42;;;;;;;;;28.00;24.00;;;;;-3.90;88.16;99678.75;4800005;29;104010;-69
2023/03/01 00:38:09;;;;;;;;;23.00;20.33;;;;;-3.94;88.36;99679.88;4795906;29;102482;-69
2023/03/01 00:40:36;;;;;;;;;43.50;26.50;;;;;-3.98;89.98;99691.53;4782014;29;102443;-70
2023/03/01 00:43:04;;;;;;;;;41.75;32.75;;;;;-3.98;92.18;99686.25;4778533;29;102601;-69
2023/03/01 00:45:32;;;;;;;;;33.50;29.00;;;;;-4.09;91.63;99660.41;4780749;29;103961;-69
2023/03/01 00:47:59;;;;;;;;;54.00;33.50;;;;;-4.01;93.07;99670.59;4783470;29;102513;-68
2023/03/01 00:50:26;;;;;;;;;78.50;54.25;;;;;-4.11;92.09;99661.44;4779181;29;102652;-70
2023/03/01 00:52:55;;;;;;;;;63.50;49.00;;;;;-4.09;91.65;99675.41;4782845;29;102635;-70
2023/03/01 00:55:23;;;;;;;;;84.00;62.75;;;;;-4.14;91.76;99669.50;4787930;29;104036;-69
2023/03/01 00:57:50;;;;;;;;;88.50;65.25;;;;;-4.21;91.87;99668.16;4803445;29;109784;-69
2023/03/01 01:00:18;;;;;;;;;65.25;52.50;;;;;-4.30;91.89;99656.31;4798652;29;101967;-68
2023/03/01 01:02:46;;;;;;;;;80.50;58.00;;;;;-4.21;92.07;99669.00;4776357;29;102590;-69
2023/03/01 01:05:14;;;;;;;;;60.50;46.50;;;;;-4.14;91.22;99666.88;4778912;29;104195;-69
2023/03/01 01:07:41;;;;;;;;;49.50;41.75;;;;;-4.18;90.54;99673.25;4789355;29;102510;-69
2023/03/01 01:10:12;;;;;;;;;82.75;65.00;;;;;-4.33;91.39;99666.19;4799172;29;102330;-69
2023/03/01 01:12:39;;;;;;;;;102.00;69.00;;;;;-4.42;92.42;99666.69;4790083;29;102318;-68
2023/03/01 01:15:07;;;;;;;;;91.50;63.75;;;;;-4.60;92.67;99639.47;4791981;29;104049;-69
2023/03/01 01:17:33;;;;;;;;;95.00;66.00;;;;;-4.59;92.60;99649.06;4786624;29;102960;-69
2023/03/01 01:20:01;;;;;;;;;84.25;60.75;;;;;-4.76;93.06;99618.31;4787223;29;102272;-69
2023/03/01 01:22:28;;;;;;;;;89.00;65.75;;;;;-4.63;93.28;99658.94;4783513;29;103730;-69
2023/03/01 01:24:55;;;;;;;;;90.50;67.50;;;;;-4.65;93.68;99649.41;4786820;29;105268;-69
2023/03/01 01:27:21;;;;;;;;;89.75;63.75;;;;;-4.76;93.72;99657.88;4794357;29;102842;-69
2023/03/01 01:29:48;;;;;;;;;93.50;66.00;;;;;-4.74;93.50;99647.25;4804286;29;102450;-69
2023/03/01 01:32:15;;;;;;;;;81.75;62.00;;;;;-4.72;93.45;99640.94;4788239;29;102400;-68
2023/03/01 01:34:42;;;;;;;;;78.75;60.50;;;;;-4.73;93.67;99639.28;4776234;29;104086;-69
2023/03/01 01:37:09;;;;;;;;;81.50;61.50;;;;;-4.77;95.05;99645.63;4779702;29;102464;-69
2023/03/01 01:39:36;;;;;;;;;92.50;66.75;;;;;-4.79;95.87;99644.00;4779850;29;102867;-70
2023/03/01 01:42:03;;;;;;;;;77.50;57.25;;;;;-4.76;96.12;99642.06;4783080;29;102806;-69
2023/03/01 01:44:30;;;;;;;;;71.00;48.75;;;;;-4.71;95.10;99631.25;4796771;29;104245;-69
2023/03/01 01:47:22;;;;;;;;;62.50;49.50;;;;;-4.70;94.28;99633.81;4780621;29;102920;-69
2023/03/01 01:49:53;;;;;;;;;85.50;62.00;;;;;-4.78;94.87;99620.19;4791224;29;102482;-69
2023/03/01 01:52:35;;;;;;;;;73.75;59.25;;;;;-4.78;95.67;99622.84;4799682;29;102852;-68
2023/03/01 01:55:11;;;;;;;;;61.75;48.25;;;;;-4.72;95.06;99619.00;4797078;29;108675;-69
2023/03/01 01:57:43;;;;;;;;;64.25;47.50;;;;;-4.70;94.24;99617.13;4793866;29;102348;-68
2023/03/01 02:00:18;;;;;;;;;79.00;60.50;;;;;-4.81;94.38;99617.69;4789513;29;102035;-69
2023/03/01 02:02:48;;;;;;;;;68.50;53.00;;;;;-4.80;94.76;99624.69;4773441;29;102617;-68
2023/03/01 02:05:24;;;;;;;;;69.75;48.75;;;;;-4.78;95.05;99625.47;4781863;29;104539;-68
2023/03/01 02:07:52;;;;;;;;;78.50;60.00;;;;;-4.85;94.23;99617.94;4778870;29;104112;-69
2023/03/01 02:10:25;;;;;;;;;71.50;48.25;;;;;-4.84;94.47;99617.00;4789533;29;102425;-69
2023/03/01 02:13:09;;;;;;;;;67.75;53.00;;;;;-4.87;94.41;99610.13;4799066;29;102204;-69
2023/03/01 02:15:51;;;;;;;;;62.00;48.00;;;;;-4.88;93.85;99618.97;4796698;29;103952;-68
2023/03/01 02:18:33;;;;;;;;;71.25;49.00;;;;;-4.90;94.07;99604.13;4792062;29;102458;-69
2023/03/01 02:21:41;;;;;;;;;46.50;37.00;;;;;-4.89;92.74;99617.25;4782268;29;105647;-69
2023/03/01 02:25:03;;;;;;;;;74.00;52.00;;;;;-5.00;93.56;99619.59;4797059;29;103955;-69
2023/03/01 02:27:54;;;;;;;;;62.00;48.25;;;;;-5.02;94.45;99629.38;4796820;29;107856;-69
2023/03/01 02:30:24;;;;;;;;;93.25;66.75;;;;;-5.19;95.78;99635.50;4788006;29;102899;-69
2023/03/01 02:33:02;;;;;;;;;94.50;65.00;;;;;-5.19;97.51;99637.28;4777795;29;102563;-69
2023/03/01 02:35:37;;;;;;;;;79.50;58.75;;;;;-5.12;97.58;99646.56;4781465;29;102476;-69
2023/03/01 02:38:08;;;;;;;;;71.00;51.00;;;;;-5.10;96.38;99644.72;4779869;29;104008;-68
2023/03/01 02:40:38;;;;;;;;;62.25;48.75;;;;;-5.07;96.19;99641.94;4779365;29;102394;-68
2023/03/01 02:43:08;;;;;;;;;69.75;52.00;;;;;-5.10;95.96;99629.78;4779795;29;102277;-68
2023/03/01 02:45:35;;;;;;;;;81.25;57.00;;;;;-5.14;96.15;99624.72;4782472;29;102484;-68
2023/03/01 02:48:02;;;;;;;;;72.50;54.00;;;;;-5.12;96.65;99625.47;4778947;29;104051;-68
2023/03/01 02:50:29;;;;;;;;;72.50;54.75;;;;;-5.10;96.29;99623.63;4782087;29;102718;-69
2023/03/01 02:53:17;;;;;;;;;70.50;48.75;;;;;-5.09;96.14;99626.19;4781274;29;102523;-69
2023/03/01 02:55:45;;;;;;;;;49.75;39.50;;;;;-5.09;95.53;99628.81;4784620;29;102513;-67
2023/03/01 02:58:12;;;;;;;;;61.00;47.75;;;;;-5.10;95.51;99629.78;4780493;29;104035;-67
2023/03/01 03:00:46;;;;;;;;;56.00;40.25;;;;;-5.06;94.57;99625.19;4779985;29;103603;-68
2023/03/01 03:03:17;;;;;;;;;40.50;38.00;;;;;-5.07;94.71;99629.59;4780218;29;102552;-68
2023/03/01 03:05:45;;;;;;;;;75.00;55.75;;;;;-5.15;94.39;99625.66;4781308;29;102534;-68
2023/03/01 03:08:12;;;;;;;;;79.00;59.00;;;;;-5.25;96.11;99621.78;4778003;29;104029;-68
2023/03/01 03:10:40;;;;;;;;;82.75;63.25;;;;;-5.36;95.41;99617.06;4797362;29;103438;-68
2023/03/01 03:13:11;;;;;;;;;76.75;58.50;;;;;-5.24;95.75;99624.34;4798644;29;101865;-68
2023/03/01 03:15:40;;;;;;;;;72.00;51.50;;;;;-5.17;95.47;99612.53;4800251;29;102340;-69
2023/03/01 03:18:10;;;;;;;;;74.00;56.00;;;;;-5.17;94.92;99615.19;4792422;29;103960;-69
2023/03/01 03:20:40;;;;;;;;;83.25;58.75;;;;;-5.20;95.21;99611.84;4778270;29;102605;-69
2023/03/01 03:23:08;;;;;;;;;66.00;47.25;;;;;-5.18;95.22;99610.84;4779822;29;102491;-69
2023/03/01 03:25:37;;;;;;;;;88.25;60.00;;;;;-5.25;95.07;99606.81;4781534;29;103128;-68
2023/03/01 03:28:09;;;;;;;;;76.00;58.00;;;;;-5.20;95.63;99603.94;4780232;29;103635;-67
2023/03/01 03:30:40;;;;;;;;;60.25;46.75;;;;;-5.18;95.70;99604.72;4773400;29;102825;-69
2023/03/01 03:33:08;;;;;;;;;67.50;47.50;;;;;-5.15;94.20;99604.56;4772176;29;102454;-69
2023/03/01 03:35:42;;;;;;;;;61.00;42.50;;;;;-5.19;94.84;99595.09;4777286;29;102550;-69
2023/03/01 03:38:17;;;;;;;;;43.75;34.25;;;;;-5.15;94.25;99596.66;4781272;29;104022;-68
2023/03/01 03:40:47;;;;;;;;;29.00;24.50;;;;;-5.13;93.91;99598.25;4779463;29;103160;-69
2023/03/01 03:43:19;;;;;;;;;51.75;40.75;;;;;-5.22;93.75;99592.66;4782060;29;102359;-67
2023/03/01 03:45:48;;;;;;;;;73.00;51.50;;;;;-5.40;94.21;99574.19;4781135;29;102514;-68
2023/03/01 03:48:16;;;;;;;;;59.00;44.00;;;;;-5.24;94.97;99594.50;4795305;29;104215;-69
2023/03/01 03:50:49;;;;;;;;;59.25;49.75;;;;;-5.28;95.22;99600.84;4787753;29;102853;-68
2023/03/01 03:53:16;;;;;;;;;83.25;63.50;;;;;-5.40;96.59;99608.44;4784170;29;102452;-67
2023/03/01 03:55:44;;;;;;;;;89.75;69.50;;;;;-5.50;96.93;99601.94;4800165;29;105708;-68
2023/03/01 03:58:11;;;;;;;;;83.00;62.00;;;;;-5.54;97.39;99587.19;4797960;29;103986;-68
2023/03/01 04:00:43;;;;;;;;;73.25;58.25;;;;;-5.36;97.18;99616.19;4798349;29;102478;-68
2023/03/01 04:03:12;;;;;;;;;65.25;47.00;;;;;-5.31;96.86;99608.91;4798612;29;102061;-68
2023/03/01 04:05:40;;;;;;;;;61.50;48.50;;;;;-5.35;96.10;99604.72;4796615;29;103275;-69
2023/03/01 04:08:09;;;;;;;;;67.50;49.00;;;;;-5.33;95.49;99597.59;4779487;29;103757;-68
2023/03/01 04:10:39;;;;;;;;;73.25;52.50;;;;;-5.40;94.63;99605.78;4780632;29;102811;-68
2023/03/01 04:13:09;;;;;;;;;84.50;63.00;;;;;-5.50;94.76;99612.47;4785458;29;102408;-68
2023/03/01 04:15:36;;;;;;;;;69.00;53.00;;;;;-5.43;95.95;99603.31;4784760;29;102225;-68
2023/03/01 04:18:03;;;;;;;;;50.00;39.25;;;;;-5.37;96.06;99606.59;4784978;29;104172;-68
2023/03/01 04:20:34;;;;;;;;;66.00;48.00;;;;;-5.41;95.79;99606.75;4784175;29;102743;-67
2023/03/01 04:23:12;;;;;;;;;55.50;43.50;;;;;-5.41;95.39;99609.38;4786435;29;103400;-68
2023/03/01 04:25:49;;;;;;;;;74.00;49.00;;;;;-5.45;95.16;99606.97;4801053;29;102098;-67
2023/03/01 04:28:16;;;;;;;;;69.25;51.00;;;;;-5.48;94.50;99604.47;4799199;29;104033;-67
2023/03/01 04:30:43;;;;;;;;;54.50;42.25;;;;;-5.46;95.02;99603.50;4801666;29;102352;-67
2023/03/01 04:33:11;;;;;;;;;47.75;36.50;;;;;-5.43;94.87;99605.09;4798331;29;102382;-69
2023/03/01 04:35:38;;;;;;;;;36.75;30.75;;;;;-5.42;95.39;99598.91;4799847;29;102419;-69
2023/03/01 04:38:06;;;;;;;;;49.00;38.50;;;;;-5.42;95.24;99599.75;4802665;29;104149;-68
2023/03/01 04:40:34;;;;;;;;;59.25;42.75;;;;;-5.42;95.47;99591.00;4800126;29;102646;-69
2023/03/01 04:43:03;;;;;;;;;46.75;37.25;;;;;-5.35;95.32;99591.53;4782923;29;103518;-69
2023/03/01 04:45:31;;;;;;;;;36.25;25.00;;;;;-5.31;95.57;99588.66;4786655;29;102694;-69
2023/03/01 04:47:58;;;;;;;;;44.00;40.50;;;;;-5.35;95.16;99591.53;4784032;29;104207;-70
2023/03/01 04:50:26;;;;;;;;;46.00;32.75;;;;;-5.29;95.59;99586.81;4784432;29;102598;-69
2023/03/01 04:52:53;;;;;;;;;29.75;25.50;;;;;-5.31;95.13;99593.09;4801617;29;102164;-69
2023/03/01 04:55:20;;;;;;;;;27.50;21.00;;;;;-5.28;95.05;99583.25;4798913;29;102283;-70
2023/03/01 04:57:48;;;;;;;;;31.75;27.50;;;;;-5.43;94.90;99557.66;4801090;29;104017;-69
2023/03/01 05:00:21;;;;;;;;;67.00;49.75;;;;;-5.36;96.35;99581.94;4778348;29;102468;-69
2023/03/01 05:03:00;;;;;;;;;51.25;43.50;;;;;-5.47;96.09;99556.97;4782359;29;111201;-69
2023/03/01 05:05:31;;;;;;;;;66.00;48.25;;;;;-5.36;95.31;99582.81;4781152;29;103150;-70
2023/03/01 05:08:00;;;;;;;;;44.50;28.50;;;;;-5.33;94.78;99580.00;4795574;29;104038;-69
2023/03/01 05:10:30;;;;;;;;;37.50;28.25;;;;;-5.34;94.47;99567.75;4793699;29;103070;-69
2023/03/01 05:12:58;;;;;;;;;46.25;39.25;;;;;-5.42;94.10;99576.06;4790699;29;102389;-68
2023/03/01 05:15:30;;;;;;;;;56.00;44.25;;;;;-5.46;94.53;99579.78;4786799;29;102575;-68
2023/03/01 05:17:59;;;;;;;;;51.25;41.75;;;;;-5.48;94.67;99581.63;4786945;29;104407;-69
2023/03/01 05:20:28;;;;;;;;;51.75;42.50;;;;;-5.45;94.88;99572.72;4789721;29;103502;-70
2023/03/01 05:23:04;;;;;;;;;43.25;32.25;;;;;-5.40;93.74;99570.69;4797584;29;103930;-69
2023/03/01 05:25:33;;;;;;;;;49.50;36.25;;;;;-5.41;93.71;99561.94;4790968;29;102233;-69
2023/03/01 05:28:04;;;;;;;;;40.25;34.00;;;;;-5.47;92.04;99578.06;4796430;29;104339;-69
2023/03/01 05:30:34;;;;;;;;;28.75;27.00;;;;;-5.45;92.57;99570.91;4790760;29;102492;-68
2023/03/01 05:33:01;;;;;;;;;21.50;16.50;;;;;-5.46;91.51;99565.75;4786149;29;103577;-68
2023/03/01 05:35:29;;;;;;;;;19.00;19.00;;;;;-5.52;92.63;99571.31;4784463;29;102488;-68
2023/03/01 05:37:56;;;;;;;;;66.25;48.50;;;;;-5.60;94.88;99566.44;4781743;29;104020;-68
2023/03/01 05:40:24;;;;;;;;;65.25;41.00;;;;;-5.62;95.54;99573.56;4785262;29;103001;-68
2023/03/01 05:42:56;;;;;;;;;79.00;60.00;;;;;-5.73;93.97;99581.16;4784955;29;102500;-68
2023/03/01 05:45:24;;;;;;;;;71.25;55.50;;;;;-5.68;94.97;99605.47;4794578;29;102444;-69
2023/03/01 05:47:52;;;;;;;;;77.50;58.50;;;;;-5.69;95.11;99587.09;4796456;29;108339;-72
2023/03/01 05:50:21;;;;;;;;;88.75;66.00;;;;;-5.75;95.17;99593.53;4801447;29;102412;-67
2023/03/01 05:52:59;;;;;;;;;93.75;69.50;;;;;-5.86;94.77;99593.22;4794907;29;102300;-68
2023/03/01 05:55:27;;;;;;;;;85.25;60.25;;;;;-5.73;96.49;99594.31;4792919;29;102199;-68
2023/03/01 05:57:55;;;;;;;;;78.50;62.25;;;;;-5.69;94.20;99592.38;4790125;29;104098;-68
2023/03/01 06:00:22;;;;;;;;;83.00;61.50;;;;;-5.60;94.98;99597.19;4788669;28;103040;-69
2023/03/01 06:02:49;;;;;;;;;63.25;49.50;;;;;-5.52;94.26;99595.88;4798334;29;102020;-68
2023/03/01 06:05:16;;;;;;;;;60.50;48.75;;;;;-5.55;92.69;99580.25;4793517;29;102491;-68
2023/03/01 06:07:43;;;;;;;;;59.25;48.00;;;;;-5.37;93.59;99588.13;4790295;29;104233;-68
2023/03/01 06:10:13;;;;;;;;;68.00;44.00;;;;;-5.26;92.38;99596.34;4792457;29;102423;-68
2023/03/01 06:12:42;;;;;;;;;70.25;56.50;;;;;-5.26;92.04;99596.34;4794470;29;102358;-72
2023/03/01 06:15:10;;;;;;;;;65.00;50.50;;;;;-5.10;93.02;99597.28;4786594;29;102470;-67
2023/03/01 06:17:40;;;;;;;;;57.00;43.25;;;;;-4.99;92.02;99590.50;4779032;29;104037;-67
2023/03/01 06:20:14;;;;;;;;;45.75;42.75;;;;;-4.89;91.48;99590.88;4785382;29;102353;-67
2023/03/01 06:22:41;;;;;;;;;48.75;39.50;;;;;-4.78;90.76;99600.88;4796904;29;102169;-67
2023/03/01 06:25:10;;;;;;;;;41.25;39.00;;;;;-4.73;90.56;99601.50;4796497;29;102699;-68
2023/03/01 06:27:37;;;;;;;;;67.50;54.00;;;;;-4.79;91.95;99610.56;4780901;29;104017;-67
2023/03/01 06:30:05;;;;;;;;;72.00;52.00;;;;;-4.78;90.49;99604.38;4781058;29;102523;-67
2023/03/01 06:32:31;;;;;;;;;93.75;69.50;;;;;-4.74;90.65;99605.91;4780205;29;103165;-67
2023/03/01 06:34:58;;;;;;;;;88.75;66.00;;;;;-4.67;90.64;99607.28;4785826;29;103137;-68
2023/03/01 06:37:26;;;;;;;;;68.50;48.75;;;;;-4.54;90.84;99610.97;4794439;29;104044;-67
2023/03/01 06:39:52;;;;;;;;;68.50;54.25;;;;;-4.42;90.28;99600.69;4796662;29;102279;-67
2023/03/01 06:42:19;;;;;;;;;55.50;47.00;;;;;-4.34;89.08;99585.28;4798006;29;102604;-67
2023/03/01 06:44:46;;;;;;;;;72.00;52.50;;;;;-4.30;88.23;99595.59;4785370;29;102586;-67
2023/03/01 06:47:13;;;;;;;;;66.25;49.00;;;;;-4.29;88.56;99570.06;4781798;29;103674;-68
2023/03/01 06:49:41;;;;;;;;;60.00;45.00;;;;;-4.04;88.52;99596.78;4799080;29;102403;-68
2023/03/01 06:52:08;;;;;;;;;72.00;57.75;;;;;-4.04;86.74;99607.34;4797957;29;101995;-68
2023/03/01 06:54:35;;;;;;;;;85.00;64.00;;;;;-3.95;87.83;99601.56;4799587;29;102547;-68
2023/03/01 06:57:02;;;;;;;;;56.75;49.00;;;;;-3.80;87.56;99594.56;4795603;29;104178;-68
2023/03/01 06:59:29;;;;;;;;;65.50;47.25;;;;;-3.70;87.14;99595.75;4798028;29;102274;-68
2023/03/01 07:01:56;;;;;;;;;65.50;49.00;;;;;-3.58;87.25;99588.91;4788803;29;102252;-67
2023/03/01 07:04:23;;;;;;;;;55.25;46.50;;;;;-3.43;86.99;99582.72;4782878;29;102362;-67
2023/03/01 07:06:54;;;;;;;;;69.00;51.00;;;;;-3.35;85.20;99586.63;4784372;29;108547;-68
2023/03/01 07:09:23;;;;;;;;;50.25;44.00;;;;;-3.22;84.07;99582.31;4798072;29;102228;-68
2023/03/01 07:11:50;;;;;;;;;45.75;35.75;;;;;-3.12;84.41;99577.34;4797391;29;102087;-68
2023/03/01 07:14:17;;;;;;;;;50.75;40.50;;;;;-2.97;83.15;99581.69;4797593;29;102143;-68
2023/03/01 07:16:44;;;;;;;;;67.75;49.50;;;;;-2.96;83.84;99583.38;4798452;29;104188;-68
2023/03/01 07:19:11;;;;;;;;;67.00;48.00;;;;;-2.86;83.09;99573.97;4795963;29;102207;-68
2023/03/01 07:21:38;;;;;;;;;77.00;53.75;;;;;-2.75;84.95;99565.38;4797050;29;101998;-68
2023/03/01 07:24:06;;;;;;;;;66.25;48.75;;;;;-2.56;84.58;99565.06;4797574;29;102270;-69
2023/03/01 07:26:33;;;;;;;;;46.00;38.00;;;;;-2.38;85.35;99566.56;4793926;29;104198;-68
2023/03/01 07:29:03;;;;;;;;;53.75;41.50;;;;;-2.21;84.23;99563.72;4796571;29;102781;-68
2023/03/01 07:31:30;;;;;;;;;42.00;31.00;;;;;-2.06;83.09;99565.38;4796920;29;102369;-70
2023/03/01 07:33:57;;;;;;;;;38.33;33.67;;;;;-1.91;82.88;99568.84;4798316;29;102148;-68
2023/03/01 07:36:24;;;;;;;;;37.00;32.00;;;;;-1.76;82.88;99564.34;4786933;29;104023;-70
2023/03/01 07:38:52;;;;;;;;;33.67;29.67;;;;;-1.61;82.49;99558.03;4785244;29;102274;-69
2023/03/01 07:41:18;;;;;;;;;47.33;38.00;;;;;-1.51;80.68;99561.78;4782608;29;106389;-70
2023/03/01 07:43:45;;;;;;;;;44.00;36.33;;;;;-1.41;79.08;99569.03;4789246;29;102395;-70
2023/03/01 07:46:13;;;;;;;;;56.00;39.33;;;;;-1.29;78.43;99562.03;4797849;29;103694;-70
2023/03/01 07:48:40;;;;;;;;;54.33;43.33;;;;;-1.26;77.10;99571.63;4800112;29;102292;-69
2023/03/01 07:51:07;;;;;;;;;61.00;43.33;;;;;-1.16;77.97;99573.53;4799479;29;102409;-70
2023/03/01 07:53:34;;;;;;;;;51.00;38.00;;;;;-0.98;77.24;99566.09;4800859;29;102538;-70
2023/03/01 07:56:03;;;;;;;;;45.67;41.33;;;;;-0.97;74.84;99566.03;4792966;29;104107;-70
2023/03/01 07:58:30;;;;;;;;;67.00;45.67;;;;;-0.87;76.73;99562.72;4796640;29;102245;-69
2023/03/01 08:01:03;;;;;;;;;49.67;39.67;;;;;-0.67;74.03;99570.16;4797832;29;102451;-71
2023/03/01 08:03:31;;;;;;;;;51.33;36.33;;;;;-0.54;73.09;99558.56;4798834;29;102546;-71
2023/03/01 08:06:03;;;;;;;;;64.33;45.00;;;;;-0.50;73.83;99561.88;4795999;29;104251;-71
2023/03/01 08:08:31;;;;;;;;;76.25;58.00;;;;;-0.49;73.05;99569.72;4795626;29;102817;-71
2023/03/01 08:10:59;;;;;;;;;78.25;58.50;;;;;-0.34;73.39;99564.28;4788019;29;102425;-70
2023/03/01 08:13:27;;;;;;;;;81.25;60.50;;;;;-0.37;73.23;99557.38;4800671;29;102439;-71
2023/03/01 08:15:54;;;;;;;;;89.50;63.75;;;;;-0.25;74.43;99561.81;4799739;29;103949;-71
2023/03/01 08:18:21;;;;;;;;;82.00;61.00;;;;;-0.08;73.98;99563.25;4800467;29;102850;-72
2023/03/01 08:20:48;;;;;;;;;85.00;60.50;;;;;0.02;72.01;99555.47;4799825;29;102040;-71
2023/03/01 08:23:15;;;;;;;;;76.75;58.50;;;;;0.14;72.59;99558.06;4800201;29;102364;-71
2023/03/01 08:25:42;;;;;;;;;82.25;62.25;;;;;0.13;71.85;99552.91;4799071;29;103164;-72
2023/03/01 08:28:09;;;;;;;;;76.25;57.00;;;;;0.22;72.20;99552.22;4794014;29;103435;-72
2023/03/01 08:30:36;;;;;;;;;78.25;56.00;;;;;0.41;71.78;99548.06;4788791;29;102265;-72
2023/03/01 08:33:03;;;;;;;;;83.25;62.25;;;;;0.46;71.05;99545.06;4788241;29;102022;-72
2023/03/01 08:35:30;;;;;;;;;90.75;65.00;;;;;0.42;70.92;99541.78;4792724;29;104171;-72
2023/03/01 08:37:57;;;;;;;;;78.00;62.00;;;;;0.53;70.29;99535.69;4798198;29;102445;-72
2023/03/01 08:40:24;;;;;;;;;64.00;49.33;;;;;0.82;70.24;99539.63;4792954;29;102534;-72
2023/03/01 08:42:51;;;;;;;;;69.33;51.00;;;;;0.92;68.25;99539.78;4798613;29;101941;-72
2023/03/01 08:45:18;;;;;;;;;69.33;56.33;;;;;0.99;67.14;99538.34;4795969;29;104020;-72
2023/03/01 08:47:45;;;;;;;;;60.67;47.33;;;;;1.15;67.63;99519.38;4799901;29;102579;-72
2023/03/01 08:50:12;;;;;;;;;62.00;50.33;;;;;1.19;66.04;99520.81;4798742;29;102070;-72
2023/03/01 08:52:39;;;;;;;;;55.00;44.33;;;;;1.34;68.74;99528.47;4801019;29;102250;-72
2023/03/01 08:55:07;;;;;;;;;62.33;46.00;;;;;1.40;64.97;99532.47;4797947;29;104233;-72
2023/03/01 08:57:34;;;;;;;;;58.00;46.33;;;;;1.58;64.78;99528.34;4781740;29;102400;-72
2023/03/01 09:00:01;;;;;;;;;49.00;40.33;;;;;1.58;63.67;99524.81;4797634;29;102252;-71
2023/03/01 09:02:28;;;;;;;;;36.33;31.67;;;;;1.66;60.43;99531.28;4788356;29;102432;-71
2023/03/01 09:04:55;;;;;;;;;46.00;35.00;;;;;1.73;62.33;99527.13;4784218;29;104069;-71
2023/03/01 09:07:21;;;;;;;;;33.33;30.33;;;;;1.82;59.57;99524.69;4788373;29;102560;-70
2023/03/01 09:09:48;;;;;;;;;49.33;40.00;;;;;1.84;61.44;99530.75;4792352;29;102709;-70
2023/03/01 09:12:15;;;;;;;;;46.33;39.00;;;;;1.85;60.27;99530.63;4802080;29;103166;-70
2023/03/01 09:14:42;;;;;;;;;35.33;30.00;;;;;2.10;59.32;99522.34;4798052;29;103927;-70
2023/03/01 09:17:09;;;;;;;;;29.67;27.67;;;;;2.39;60.12;99527.94;4789605;29;101998;-70
2023/03/01 09:19:36;;;;;;;;;41.00;35.00;;;;;2.47;59.92;99532.66;4798182;29;102229;-71
2023/03/01 09:22:04;;;;;;;;;30.00;28.33;;;;;2.44;58.71;99530.22;4801923;29;102206;-70
2023/03/01 09:24:31;;;;;;;;;32.67;27.33;;;;;2.58;58.50;99519.25;4793389;29;104190;-70
2023/03/01 09:26:58;;;;;;;;;42.33;34.67;;;;;2.46;58.83;99534.47;4767960;29;102554;-70
2023/03/01 09:29:25;;;;;;;;;34.00;25.33;;;;;2.61;56.95;99524.34;4790450;29;102401;-71
2023/03/01 09:31:54;;;;;;;;;31.67;26.33;;;;;2.69;57.61;99522.72;4796917;29;102318;-70
2023/03/01 09:34:23;;;;;;;;;40.33;34.00;;;;;2.65;57.93;99529.31;4797223;29;108778;-70
2023/03/01 09:36:50;;;;;;;;;33.67;30.00;;;;;2.60;57.06;99512.81;4799265;29;102142;-70
2023/03/01 09:39:18;;;;;;;;;49.00;36.67;;;;;2.61;59.33;99522.50;4795930;29;102036;-70
2023/03/01 09:41:48;;;;;;;;;33.67;30.33;;;;;2.53;57.45;99522.31;4802428;29;102034;-70
2023/03/01 09:44:39;;;;;;;;;46.67;38.00;;;;;2.57;56.96;99515.72;4794785;29;104012;-69
2023/03/01 09:47:17;;;;;;;;;43.33;34.00;;;;;2.63;56.32;99509.03;4799824;29;102482;-69
2023/03/01 09:49:56;;;;;;;;;43.33;35.33;;;;;2.65;57.42;99510.63;4799198;29;102180;-69
2023/03/01 09:52:58;;;;;;;;;45.00;31.00;;;;;2.98;57.55;99506.03;4795905;29;102051;-69
2023/03/01 09:55:31;;;;;;;;;50.33;35.00;;;;;3.03;56.37;99494.00;4768600;29;108651;-69
2023/03/01 09:58:08;;;;;;;;;61.00;38.00;;;;;3.11;55.61;99507.53;4796790;29;102348;-69
2023/03/01 10:00:41;;;;;;;;;63.33;49.00;;;;;3.14;55.43;99503.78;4795587;29;102197;-69
2023/03/01 10:03:12;;;;;;;;;63.00;50.33;;;;;3.11;56.83;99504.00;4790144;29;102446;-69
2023/03/01 10:05:48;;;;;;;;;60.67;45.33;;;;;3.18;54.77;99505.19;4778596;29;104221;-70
2023/03/01 10:08:36;;;;;;;;;63.00;46.33;;;;;3.31;55.83;99505.81;4778756;29;102983;-69
2023/03/01 10:11:15;;;;;;;;;63.33;47.33;;;;;3.33;54.94;99503.84;4799295;29;102493;-69
2023/03/01 10:13:48;;;;;;;;;56.00;44.00;;;;;3.43;53.79;99498.56;4798606;29;102391;-68
2023/03/01 10:16:21;;;;;;;;;62.33;46.33;;;;;3.44;54.15;99502.94;4798947;29;103973;-69
2023/03/01 10:18:55;;;;;;;;;55.33;41.67;;;;;3.58;55.06;99497.22;4796742;29;102418;-70
2023/03/01 10:21:23;;;;;;;;;49.67;42.00;;;;;3.51;55.28;99462.13;4795146;29;102753;-69
2023/03/01 10:23:53;;;;;;;;;59.00;48.00;;;;;3.36;54.97;99462.66;4799481;29;102024;-69
2023/03/01 10:26:39;;;;;;;;;66.67;50.67;;;;;3.45;55.78;99484.09;4796132;29;108558;-68
2023/03/01 10:29:11;;;;;;;;;71.00;51.33;;;;;3.27;56.96;99479.50;4787946;29;102515;-69
2023/03/01 10:31:42;;;;;;;;;64.00;46.00;;;;;3.71;54.67;99488.94;4786539;29;103064;-70
2023/03/01 10:34:36;;;;;;;;;59.67;45.33;;;;;3.80;53.06;99488.13;4782776;29;102158;-69
2023/03/01 10:37:15;;;;;;;;;47.33;40.00;;;;;4.01;55.61;99476.34;4796046;29;108735;-69
2023/03/01 10:40:00;;;;;;;;;61.00;46.33;;;;;4.22;54.71;99488.78;4797994;29;102094;-69
2023/03/01 10:42:43;;;;;;;;;66.00;50.33;;;;;4.13;52.72;99481.59;4796410;29;102253;-69
2023/03/01 10:45:30;;;;;;;;;69.67;50.33;;;;;3.86;52.44;99482.25;4799146;29;103027;-69
2023/03/01 10:48:15;;;;;;;;;57.33;45.33;;;;;4.08;53.63;99471.31;4797827;29;108867;-69
2023/03/01 10:50:45;;;;;;;;;68.33;49.33;;;;;4.17;52.82;99480.34;4798180;29;102284;-69
2023/03/01 10:53:29;;;;;;;;;73.00;56.00;;;;;4.17;54.28;99469.63;4798452;29;102083;-68
2023/03/01 10:55:59;;;;;;;;;67.00;53.33;;;;;4.33;51.81;99472.59;4794852;29;102364;-69
2023/03/01 10:58:28;;;;;;;;;64.33;51.00;;;;;4.34;53.13;99471.59;4785239;29;103691;-69
2023/03/01 11:01:03;;;;;;;;;77.00;54.33;;;;;4.29;53.58;99461.31;4780497;29;102493;-69
2023/03/01 11:03:38;;;;;;;;;58.67;43.67;;;;;4.64;52.76;99462.59;4779327;29;102519;-69
2023/03/01 11:06:11;;;;;;;;;62.67;44.33;;;;;4.88;52.28;99450.41;4782018;29;102718;-69
2023/03/01 11:08:42;;;;;;;;;62.00;46.67;;;;;5.05;51.94;99453.31;4796270;29;103990;-69
2023/03/01 11:11:09;;;;;;;;;66.33;48.67;;;;;5.17;51.92;99452.19;4794991;29;102424;-69
2023/03/01 11:13:46;;;;;;;;;65.67;53.00;;;;;4.81;50.29;99443.97;4784942;29;102313;-69
2023/03/01 11:16:13;;;;;;;;;71.00;55.00;;;;;4.74;50.73;99442.81;4786836;29;102208;-69
2023/03/01 11:18:40;;;;;;;;;62.67;49.67;;;;;4.75;50.49;99436.50;4797248;29;104352;-69
2023/03/01 11:21:15;;;;;;;;;69.67;54.67;;;;;4.92;53.20;99429.53;4796913;29;103454;-69
2023/03/01 11:23:46;;;;;;;;;61.67;49.33;;;;;4.87;51.58;99431.78;4778654;29;102584;-69
2023/03/01 11:26:15;;;;;;;;;69.00;55.00;;;;;4.89;52.65;99432.50;4797740;29;102452;-70